^^

New Milford Station Historical Data

Daily Summary for November 14, 2019 Units:  Both    English   Metric
Daily Weekly Monthly Yearly Custom
  High: Low: Average:
Temperature: 40.3 °F /  4.6 °C 17.9 °F /  -7.8 °C 28.9 °F /  -1.7 °C
Dew Point: 30.2 °F /  -1 °C 15.5 °F /  -9.2 °C 23.4 °F /  -4.8 °C
Humidity: 92% 61% 80%
Wind Speed: 5mph /  8km/h - 0.3mph /  0.5km/h
Wind Gust: 10mph /  16.1km/h - -
Wind- - WSW
Pressure: 30.41 in /  1029.7 hPa 30.21 in /  1022.9 hPa -
Precipitation: 0 in /  0 mm    
Historical Graphs
 
 
Tabular Data for November 14, 2019
Time Temperature Dew Point Pressure Wind Wind Speed Wind Gust Humidity Rainfall Rate (Hourly) solar
00:00 20 °F /  -6.7 °C 15.7 °F /  -9.1 °C 30.38in /  1028.7hPa Calm     83% 0in /  0mm WeatherDisplay:10.37 W/m2
00:05 20.1 °F /  -6.6 °C 16 °F /  -8.9 °C 30.38in /  1028.7hPa Calm     84% 0in /  0mm WeatherDisplay:10.37 W/m2
00:10 20 °F /  -6.7 °C 15.9 °F /  -8.9 °C 30.38in /  1028.7hPa Calm     84% 0in /  0mm WeatherDisplay:10.37 W/m2
00:15 19.9 °F /  -6.7 °C 15.8 °F /  -9 °C 30.38in /  1028.7hPa Calm     84% 0in /  0mm WeatherDisplay:10.37 W/m2
00:20 19.9 °F /  -6.7 °C 15.9 °F /  -8.9 °C 30.38in /  1028.7hPa Calm     84% 0in /  0mm WeatherDisplay:10.37 W/m2
00:25 20 °F /  -6.7 °C 16.2 °F /  -8.8 °C 30.38in /  1028.7hPa Calm     85% 0in /  0mm WeatherDisplay:10.37 W/m2
00:30 20.1 °F /  -6.6 °C 16.3 °F /  -8.7 °C 30.38in /  1028.7hPa Calm     85% 0in /  0mm WeatherDisplay:10.37 W/m2
00:35 20.2 °F /  -6.6 °C 16.4 °F /  -8.7 °C 30.38in /  1028.7hPa Calm     85% 0in /  0mm WeatherDisplay:10.37 W/m2
00:40 20.1 °F /  -6.6 °C 16.3 °F /  -8.7 °C 30.38in /  1028.7hPa Calm     85% 0in /  0mm WeatherDisplay:10.37 W/m2
00:45 20.1 °F /  -6.6 °C 16.1 °F /  -8.8 °C 30.38in /  1028.7hPa Calm     84% 0in /  0mm WeatherDisplay:10.37 W/m2
00:50 20.2 °F /  -6.6 °C 16.4 °F /  -8.7 °C 30.38in /  1028.7hPa Calm     85% 0in /  0mm WeatherDisplay:10.37 W/m2
00:55 20.2 °F /  -6.6 °C 16.4 °F /  -8.7 °C 30.38in /  1028.7hPa Calm     85% 0in /  0mm WeatherDisplay:10.37 W/m2
01:00 20.1 °F /  -6.6 °C 16.3 °F /  -8.7 °C 30.38in /  1028.7hPa Calm     85% 0in /  0mm WeatherDisplay:10.37 W/m2
01:05 19.9 °F /  -6.7 °C 16.1 °F /  -8.8 °C 30.38in /  1028.7hPa Calm     85% 0in /  0mm WeatherDisplay:10.37 W/m2
01:10 19.9 °F /  -6.7 °C 16.1 °F /  -8.8 °C 30.38in /  1028.7hPa Calm     85% 0in /  0mm WeatherDisplay:10.37 W/m2
01:15 19.7 °F /  -6.8 °C 16.2 °F /  -8.8 °C 30.38in /  1028.7hPa Calm     86% 0in /  0mm WeatherDisplay:10.37 W/m2
01:20 19.9 °F /  -6.7 °C 16.4 °F /  -8.7 °C 30.39in /  1029hPa Calm     86% 0in /  0mm WeatherDisplay:10.37 W/m2
01:25 19.9 °F /  -6.7 °C 16.4 °F /  -8.7 °C 30.39in /  1029hPa Calm     86% 0in /  0mm WeatherDisplay:10.37 W/m2
01:30 19.8 °F /  -6.8 °C 16.3 °F /  -8.7 °C 30.39in /  1029hPa Calm     86% 0in /  0mm WeatherDisplay:10.37 W/m2
01:35 19.9 °F /  -6.7 °C 16.4 °F /  -8.7 °C 30.39in /  1029hPa Calm     86% 0in /  0mm WeatherDisplay:10.37 W/m2
01:40 19.7 °F /  -6.8 °C 16.2 °F /  -8.8 °C 30.39in /  1029hPa Calm     86% 0in /  0mm WeatherDisplay:10.37 W/m2
01:45 19.6 °F /  -6.9 °C 16.1 °F /  -8.8 °C 30.39in /  1029hPa Calm     86% 0in /  0mm WeatherDisplay:10.37 W/m2
01:50 19.7 °F /  -6.8 °C 16.5 °F /  -8.6 °C 30.39in /  1029hPa Calm     87% 0in /  0mm WeatherDisplay:10.37 W/m2
01:55 19.7 °F /  -6.8 °C 16.5 °F /  -8.6 °C 30.39in /  1029hPa Calm     87% 0in /  0mm WeatherDisplay:10.37 W/m2
02:00 19.7 °F /  -6.8 °C 16.5 °F /  -8.6 °C 30.39in /  1029hPa Calm     87% 0in /  0mm WeatherDisplay:10.37 W/m2
02:05 19.6 °F /  -6.9 °C 16.6 °F /  -8.6 °C 30.39in /  1029hPa Calm     88% 0in /  0mm WeatherDisplay:10.37 W/m2
02:10 19.9 °F /  -6.7 °C 16.9 °F /  -8.4 °C 30.39in /  1029hPa Calm     88% 0in /  0mm WeatherDisplay:10.37 W/m2
02:15 19.8 °F /  -6.8 °C 16.6 °F /  -8.6 °C 30.39in /  1029hPa Calm     87% 0in /  0mm WeatherDisplay:10.37 W/m2
02:20 19.8 °F /  -6.8 °C 16.5 °F /  -8.6 °C 30.39in /  1029hPa Calm     87% 0in /  0mm WeatherDisplay:10.37 W/m2
02:25 19.5 °F /  -6.9 °C 16 °F /  -8.9 °C 30.39in /  1029hPa Calm     86% 0in /  0mm WeatherDisplay:10.37 W/m2
02:30 19.5 °F /  -6.9 °C 15.9 °F /  -8.9 °C 30.38in /  1028.7hPa Calm     86% 0in /  0mm WeatherDisplay:10.37 W/m2
02:35 19.3 °F /  -7.1 °C 16.1 °F /  -8.8 °C 30.38in /  1028.7hPa Calm     87% 0in /  0mm WeatherDisplay:10.37 W/m2
02:40 19.3 °F /  -7.1 °C 16.3 °F /  -8.7 °C 30.39in /  1029hPa Calm   1mph /  1.6km/h 88% 0in /  0mm WeatherDisplay:10.37 W/m2
02:45 19.3 °F /  -7.1 °C 16.3 °F /  -8.7 °C 30.38in /  1028.7hPa Calm     88% 0in /  0mm WeatherDisplay:10.37 W/m2
02:50 19.1 °F /  -7.2 °C 16.1 °F /  -8.8 °C 30.38in /  1028.7hPa Calm     88% 0in /  0mm WeatherDisplay:10.37 W/m2
02:55 19 °F /  -7.2 °C 16 °F /  -8.9 °C 30.38in /  1028.7hPa Calm     88% 0in /  0mm WeatherDisplay:10.37 W/m2
03:00 19 °F /  -7.2 °C 16.1 °F /  -8.8 °C 30.38in /  1028.7hPa Calm     88% 0in /  0mm WeatherDisplay:10.37 W/m2
03:05 18.8 °F /  -7.3 °C 15.8 °F /  -9 °C 30.38in /  1028.7hPa Calm     88% 0in /  0mm WeatherDisplay:10.37 W/m2
03:10 18.8 °F /  -7.3 °C 15.8 °F /  -9 °C 30.38in /  1028.7hPa Calm     88% 0in /  0mm WeatherDisplay:10.37 W/m2
03:15 18.7 °F /  -7.4 °C 15.7 °F /  -9.1 °C 30.38in /  1028.7hPa Calm     88% 0in /  0mm WeatherDisplay:10.37 W/m2
03:20 18.8 °F /  -7.3 °C 15.9 °F /  -8.9 °C 30.39in /  1029hPa Calm     88% 0in /  0mm WeatherDisplay:10.37 W/m2
03:25 18.8 °F /  -7.3 °C 15.8 °F /  -9 °C 30.38in /  1028.7hPa Calm     88% 0in /  0mm WeatherDisplay:10.37 W/m2
03:30 18.8 °F /  -7.3 °C 15.8 °F /  -9 °C 30.38in /  1028.7hPa Calm     88% 0in /  0mm WeatherDisplay:10.37 W/m2
03:35 18.9 °F /  -7.3 °C 15.9 °F /  -8.9 °C 30.38in /  1028.7hPa Calm     88% 0in /  0mm WeatherDisplay:10.37 W/m2
03:40 19.1 °F /  -7.2 °C 16.4 °F /  -8.7 °C 30.38in /  1028.7hPa Calm     89% 0in /  0mm WeatherDisplay:10.37 W/m2
03:45 19.2 °F /  -7.1 °C 16.2 °F /  -8.8 °C 30.38in /  1028.7hPa Calm     88% 0in /  0mm WeatherDisplay:10.37 W/m2
03:50 19.5 °F /  -6.9 °C 16.5 °F /  -8.6 °C 30.38in /  1028.7hPa Calm     88% 0in /  0mm WeatherDisplay:10.37 W/m2
03:55 19.6 °F /  -6.9 °C 16.7 °F /  -8.5 °C 30.38in /  1028.7hPa Calm     88% 0in /  0mm WeatherDisplay:10.37 W/m2
04:00 19.7 °F /  -6.8 °C 16.4 °F /  -8.7 °C 30.38in /  1028.7hPa Calm     87% 0in /  0mm WeatherDisplay:10.37 W/m2
04:05 19.7 °F /  -6.8 °C 16.5 °F /  -8.6 °C 30.39in /  1029hPa Calm     87% 0in /  0mm WeatherDisplay:10.37 W/m2
04:10 19.8 °F /  -6.8 °C 16.6 °F /  -8.6 °C 30.39in /  1029hPa Calm     87% 0in /  0mm WeatherDisplay:10.37 W/m2
04:15 19.6 °F /  -6.9 °C 16.1 °F /  -8.8 °C 30.38in /  1028.7hPa Calm     86% 0in /  0mm WeatherDisplay:10.37 W/m2
04:20 19.6 °F /  -6.9 °C 16 °F /  -8.9 °C 30.38in /  1028.7hPa Calm     86% 0in /  0mm WeatherDisplay:10.37 W/m2
04:25 19.3 °F /  -7.1 °C 16.1 °F /  -8.8 °C 30.38in /  1028.7hPa Calm     87% 0in /  0mm WeatherDisplay:10.37 W/m2
04:30 19.2 °F /  -7.1 °C 15.9 °F /  -8.9 °C 30.38in /  1028.7hPa Calm     87% 0in /  0mm WeatherDisplay:10.37 W/m2
04:35 19.1 °F /  -7.2 °C 16.1 °F /  -8.8 °C 30.38in /  1028.7hPa Calm     88% 0in /  0mm WeatherDisplay:10.37 W/m2
04:40 19.1 °F /  -7.2 °C 16.1 °F /  -8.8 °C 30.38in /  1028.7hPa Calm     88% 0in /  0mm WeatherDisplay:10.37 W/m2
04:45 19 °F /  -7.2 °C 16.3 °F /  -8.7 °C 30.39in /  1029hPa Calm     89% 0in /  0mm WeatherDisplay:10.37 W/m2
04:50 19 °F /  -7.2 °C 16.2 °F /  -8.8 °C 30.39in /  1029hPa Calm     89% 0in /  0mm WeatherDisplay:10.37 W/m2
04:55 18.8 °F /  -7.3 °C 15.8 °F /  -9 °C 30.38in /  1028.7hPa Calm     88% 0in /  0mm WeatherDisplay:10.37 W/m2
05:00 18.4 °F /  -7.6 °C 15.7 °F /  -9.1 °C 30.38in /  1028.7hPa Calm     89% 0in /  0mm WeatherDisplay:10.37 W/m2
05:05 18.5 °F /  -7.5 °C 15.8 °F /  -9 °C 30.39in /  1029hPa Calm     89% 0in /  0mm WeatherDisplay:10.37 W/m2
05:10 18.4 °F /  -7.6 °C 15.7 °F /  -9.1 °C 30.38in /  1028.7hPa Calm     89% 0in /  0mm WeatherDisplay:10.37 W/m2
05:15 18.3 °F /  -7.6 °C 15.9 °F /  -8.9 °C 30.38in /  1028.7hPa Calm     90% 0in /  0mm WeatherDisplay:10.37 W/m2
05:20 18.3 °F /  -7.6 °C 15.8 °F /  -9 °C 30.38in /  1028.7hPa Calm     90% 0in /  0mm WeatherDisplay:10.37 W/m2
05:25 18.2 °F /  -7.7 °C 15.8 °F /  -9 °C 30.38in /  1028.7hPa Calm     90% 0in /  0mm WeatherDisplay:10.37 W/m2
05:30 18.1 °F /  -7.7 °C 15.7 °F /  -9.1 °C 30.38in /  1028.7hPa Calm     90% 0in /  0mm WeatherDisplay:10.37 W/m2
05:35 18 °F /  -7.8 °C 15.6 °F /  -9.1 °C 30.38in /  1028.7hPa Calm     90% 0in /  0mm WeatherDisplay:10.37 W/m2
05:40 18.2 °F /  -7.7 °C 15.7 °F /  -9.1 °C 30.38in /  1028.7hPa Calm     90% 0in /  0mm WeatherDisplay:10.37 W/m2
05:45 18.1 °F /  -7.7 °C 15.7 °F /  -9.1 °C 30.38in /  1028.7hPa Calm     90% 0in /  0mm WeatherDisplay:10.37 W/m2
05:50 18.1 °F /  -7.7 °C 15.7 °F /  -9.1 °C 30.38in /  1028.7hPa Calm     90% 0in /  0mm WeatherDisplay:10.37 W/m2
05:55 18.2 °F /  -7.7 °C 15.7 °F /  -9.1 °C 30.38in /  1028.7hPa Calm     90% 0in /  0mm WeatherDisplay:10.37 W/m2
06:00 18.2 °F /  -7.7 °C 15.7 °F /  -9.1 °C 30.38in /  1028.7hPa Calm     90% 0in /  0mm WeatherDisplay:10.37 W/m2
06:05 18.2 °F /  -7.7 °C 15.8 °F /  -9 °C 30.38in /  1028.7hPa Calm     90% 0in /  0mm WeatherDisplay:10.37 W/m2
06:10 18.1 °F /  -7.7 °C 15.7 °F /  -9.1 °C 30.38in /  1028.7hPa Calm     90% 0in /  0mm WeatherDisplay:10.37 W/m2
06:15 18.1 °F /  -7.7 °C 15.6 °F /  -9.1 °C 30.38in /  1028.7hPa Calm     90% 0in /  0mm WeatherDisplay:10.37 W/m2
06:20 18 °F /  -7.8 °C 15.6 °F /  -9.1 °C 30.39in /  1029hPa Calm     90% 0in /  0mm WeatherDisplay:10.37 W/m2
06:25 17.9 °F /  -7.8 °C 15.5 °F /  -9.2 °C 30.39in /  1029hPa Calm     90% 0in /  0mm WeatherDisplay:10.37 W/m2
06:30 18.1 °F /  -7.7 °C 15.9 °F /  -8.9 °C 30.39in /  1029hPa Calm     91% 0in /  0mm WeatherDisplay:10.37 W/m2
06:35 18.1 °F /  -7.7 °C 15.6 °F /  -9.1 °C 30.39in /  1029hPa Calm     90% 0in /  0mm WeatherDisplay:10.37 W/m2
06:40 18.1 °F /  -7.7 °C 15.9 °F /  -8.9 °C 30.38in /  1028.7hPa Calm     91% 0in /  0mm WeatherDisplay:10.37 W/m2
06:45 18.2 °F /  -7.7 °C 16 °F /  -8.9 °C 30.38in /  1028.7hPa Calm     91% 0in /  0mm WeatherDisplay:10.37 W/m2
06:50 18.2 °F /  -7.7 °C 16.3 °F /  -8.7 °C 30.38in /  1028.7hPa Calm     92% 0in /  0mm WeatherDisplay:10.37 W/m2
06:55 18.4 °F /  -7.6 °C 16.3 °F /  -8.7 °C 30.39in /  1029hPa Calm     91% 0in /  0mm WeatherDisplay:10.37 W/m2
07:00 18.6 °F /  -7.4 °C 16.4 °F /  -8.7 °C 30.39in /  1029hPa Calm     91% 0in /  0mm WeatherDisplay:10.37 W/m2
07:05 18.6 °F /  -7.4 °C 16.4 °F /  -8.7 °C 30.39in /  1029hPa Calm     91% 0in /  0mm WeatherDisplay:10.37 W/m2
07:10 18.7 °F /  -7.4 °C 16.5 °F /  -8.6 °C 30.39in /  1029hPa Calm     91% 0in /  0mm WeatherDisplay:10.37 W/m2
07:15 18.8 °F /  -7.3 °C 16.7 °F /  -8.5 °C 30.39in /  1029hPa Calm     91% 0in /  0mm WeatherDisplay:10.37 W/m2
07:20 19.1 °F /  -7.2 °C 16.9 °F /  -8.4 °C 30.40in /  1029.3hPa Calm     91% 0in /  0mm WeatherDisplay:10.37 W/m2
07:25 19.3 °F /  -7.1 °C 17.1 °F /  -8.3 °C 30.40in /  1029.3hPa Calm     91% 0in /  0mm WeatherDisplay:10.37 W/m2
07:30 19.5 °F /  -6.9 °C 17.3 °F /  -8.2 °C 30.39in /  1029hPa Calm     91% 0in /  0mm WeatherDisplay:10.37 W/m2
07:35 19.8 °F /  -6.8 °C 17.3 °F /  -8.2 °C 30.40in /  1029.3hPa Calm     90% 0in /  0mm WeatherDisplay:10.37 W/m2
07:40 19.9 °F /  -6.7 °C 17.4 °F /  -8.1 °C 30.40in /  1029.3hPa Calm     90% 0in /  0mm WeatherDisplay:10.37 W/m2
07:45 20.4 °F /  -6.4 °C 17.7 °F /  -7.9 °C 30.40in /  1029.3hPa Calm     89% 0in /  0mm WeatherDisplay:10.37 W/m2
07:50 20.8 °F /  -6.2 °C 18.3 °F /  -7.6 °C 30.39in /  1029hPa Calm     90% 0in /  0mm WeatherDisplay:10.37 W/m2
07:55 21.1 °F /  -6.1 °C 18.4 °F /  -7.6 °C 30.39in /  1029hPa Calm     89% 0in /  0mm WeatherDisplay:10.37 W/m2
08:00 21.3 °F /  -5.9 °C 18.5 °F /  -7.5 °C 30.40in /  1029.3hPa Calm     89% 0in /  0mm WeatherDisplay:10.37 W/m2
08:05 21.5 °F /  -5.8 °C 18.5 °F /  -7.5 °C 30.40in /  1029.3hPa Calm     88% 0in /  0mm WeatherDisplay:10.37 W/m2
08:10 22.1 °F /  -5.5 °C 19.1 °F /  -7.2 °C 30.41in /  1029.7hPa Calm     88% 0in /  0mm WeatherDisplay:10.37 W/m2
08:15 22.6 °F /  -5.2 °C 19.3 °F /  -7.1 °C 30.41in /  1029.7hPa Calm     87% 0in /  0mm WeatherDisplay:10.37 W/m2
08:20 23.1 °F /  -4.9 °C 19.5 °F /  -6.9 °C 30.41in /  1029.7hPa Calm     86% 0in /  0mm WeatherDisplay:10.37 W/m2
08:25 23.5 °F /  -4.7 °C 19.1 °F /  -7.2 °C 30.40in /  1029.3hPa Calm     83% 0in /  0mm WeatherDisplay:10.37 W/m2
08:30 23.8 °F /  -4.6 °C 18.3 °F /  -7.6 °C 30.40in /  1029.3hPa Calm     79% 0in /  0mm WeatherDisplay:10.37 W/m2
08:35 24.4 °F /  -4.2 °C 18.5 °F /  -7.5 °C 30.40in /  1029.3hPa Calm     78% 0in /  0mm WeatherDisplay:10.37 W/m2
08:40 24.7 °F /  -4.1 °C 18.5 °F /  -7.5 °C 30.40in /  1029.3hPa Calm     77% 0in /  0mm WeatherDisplay:10.37 W/m2
08:45 25 °F /  -3.9 °C 19.1 °F /  -7.2 °C 30.39in /  1029hPa Calm     78% 0in /  0mm WeatherDisplay:10.37 W/m2
08:50 25.3 °F /  -3.7 °C 19.4 °F /  -7 °C 30.39in /  1029hPa Calm     78% 0in /  0mm WeatherDisplay:10.37 W/m2
08:55 25.4 °F /  -3.7 °C 19.5 °F /  -6.9 °C 30.40in /  1029.3hPa Calm     78% 0in /  0mm WeatherDisplay:10.37 W/m2
09:00 25.8 °F /  -3.4 °C 19.9 °F /  -6.7 °C 30.39in /  1029hPa Calm     78% 0in /  0mm WeatherDisplay:10.37 W/m2
09:05 26 °F /  -3.3 °C 19.8 °F /  -6.8 °C 30.40in /  1029.3hPa Calm     77% 0in /  0mm WeatherDisplay:10.37 W/m2
09:10 26.4 °F /  -3.1 °C 20.2 °F /  -6.6 °C 30.39in /  1029hPa Calm     77% 0in /  0mm WeatherDisplay:10.37 W/m2
09:15 26.8 °F /  -2.9 °C 20.5 °F /  -6.4 °C 30.40in /  1029.3hPa Calm     77% 0in /  0mm WeatherDisplay:10.37 W/m2
09:20 27 °F /  -2.8 °C 20.4 °F /  -6.4 °C 30.39in /  1029hPa Calm     76% 0in /  0mm WeatherDisplay:10.37 W/m2
09:25 26.8 °F /  -2.9 °C 19 °F /  -7.2 °C 30.40in /  1029.3hPa SE 1mph /  1.6km/h 3mph /  4.8km/h 72% 0in /  0mm WeatherDisplay:10.37 W/m2
09:30 27.3 °F /  -2.6 °C 19.8 °F /  -6.8 °C 30.39in /  1029hPa Calm   1mph /  1.6km/h 73% 0in /  0mm WeatherDisplay:10.37 W/m2
09:35 27.9 °F /  -2.3 °C 20.4 °F /  -6.4 °C 30.39in /  1029hPa Calm     73% 0in /  0mm WeatherDisplay:10.37 W/m2
09:40 28.3 °F /  -2.1 °C 20.7 °F /  -6.3 °C 30.39in /  1029hPa Calm     73% 0in /  0mm WeatherDisplay:10.37 W/m2
09:45 28.8 °F /  -1.8 °C 21.2 °F /  -6 °C 30.39in /  1029hPa Calm     73% 0in /  0mm WeatherDisplay:10.37 W/m2
09:50 29 °F /  -1.7 °C 20.8 °F /  -6.2 °C 30.39in /  1029hPa Calm   1mph /  1.6km/h 71% 0in /  0mm WeatherDisplay:10.37 W/m2
09:55 29.3 °F /  -1.5 °C 21.4 °F /  -5.9 °C 30.39in /  1029hPa Calm     72% 0in /  0mm WeatherDisplay:10.37 W/m2
10:00 29.7 °F /  -1.3 °C 21.8 °F /  -5.7 °C 30.39in /  1029hPa Calm     72% 0in /  0mm WeatherDisplay:10.37 W/m2
10:05 29.8 °F /  -1.2 °C 21.9 °F /  -5.6 °C 30.39in /  1029hPa Calm   4mph /  6.4km/h 72% 0in /  0mm WeatherDisplay:10.37 W/m2
10:10 30.5 °F /  -0.8 °C 22.5 °F /  -5.3 °C 30.39in /  1029hPa Calm   3mph /  4.8km/h 72% 0in /  0mm WeatherDisplay:10.37 W/m2
10:15 31.1 °F /  -0.5 °C 23.1 °F /  -4.9 °C 30.38in /  1028.7hPa Calm     72% 0in /  0mm WeatherDisplay:10.37 W/m2
10:20 31.8 °F /  -0.1 °C 23.8 °F /  -4.6 °C 30.38in /  1028.7hPa Calm     72% 0in /  0mm WeatherDisplay:10.37 W/m2
10:25 32.5 °F /  0.3 °C 24.8 °F /  -4 °C 30.37in /  1028.3hPa Calm     73% 0in /  0mm WeatherDisplay:10.37 W/m2
10:30 33.3 °F /  0.7 °C 24.9 °F /  -3.9 °C 30.37in /  1028.3hPa WNW 2mph /  3.2km/h 5mph /  8km/h 71% 0in /  0mm WeatherDisplay:10.37 W/m2
10:35 33.7 °F /  0.9 °C 25 °F /  -3.9 °C 30.37in /  1028.3hPa NW 2mph /  3.2km/h 7mph /  11.3km/h 70% 0in /  0mm WeatherDisplay:10.37 W/m2
10:40 33.8 °F /  1 °C 25.4 °F /  -3.7 °C 30.36in /  1028hPa NW 2mph /  3.2km/h 7mph /  11.3km/h 71% 0in /  0mm WeatherDisplay:10.37 W/m2
10:45 33.9 °F /  1.1 °C 25.8 °F /  -3.4 °C 30.36in /  1028hPa NW 1mph /  1.6km/h 5mph /  8km/h 72% 0in /  0mm WeatherDisplay:10.37 W/m2
10:50 34.2 °F /  1.2 °C 26.1 °F /  -3.3 °C 30.36in /  1028hPa Calm   2mph /  3.2km/h 72% 0in /  0mm WeatherDisplay:10.37 W/m2
10:55 34.5 °F /  1.4 °C 26.4 °F /  -3.1 °C 30.36in /  1028hPa WNW 1mph /  1.6km/h 2mph /  3.2km/h 72% 0in /  0mm WeatherDisplay:10.37 W/m2
11:00 34.6 °F /  1.4 °C 26.5 °F /  -3.1 °C 30.36in /  1028hPa Calm   1mph /  1.6km/h 72% 0in /  0mm WeatherDisplay:10.37 W/m2
11:05 35.2 °F /  1.8 °C 27.1 °F /  -2.7 °C 30.36in /  1028hPa WNW 1mph /  1.6km/h 4mph /  6.4km/h 72% 0in /  0mm WeatherDisplay:10.37 W/m2
11:10 35.5 °F /  1.9 °C 26 °F /  -3.3 °C 30.35in /  1027.7hPa West 2mph /  3.2km/h 7mph /  11.3km/h 68% 0in /  0mm WeatherDisplay:10.37 W/m2
11:15 35.8 °F /  2.1 °C 27 °F /  -2.8 °C 30.34in /  1027.3hPa Calm   2mph /  3.2km/h 70% 0in /  0mm WeatherDisplay:10.37 W/m2
11:20 36.1 °F /  2.3 °C 27.2 °F /  -2.7 °C 30.34in /  1027.3hPa WSW 1mph /  1.6km/h 4mph /  6.4km/h 70% 0in /  0mm WeatherDisplay:10.37 W/m2
11:25 36.4 °F /  2.4 °C 27.6 °F /  -2.4 °C 30.34in /  1027.3hPa SW 1mph /  1.6km/h 3mph /  4.8km/h 70% 0in /  0mm WeatherDisplay:10.37 W/m2
11:30 36.8 °F /  2.7 °C 27.2 °F /  -2.7 °C 30.34in /  1027.3hPa WSW 2mph /  3.2km/h 6mph /  9.7km/h 68% 0in /  0mm WeatherDisplay:10.37 W/m2
11:35 36.8 °F /  2.7 °C 27.2 °F /  -2.7 °C 30.34in /  1027.3hPa Calm   3mph /  4.8km/h 68% 0in /  0mm WeatherDisplay:10.37 W/m2
11:40 37 °F /  2.8 °C 27.1 °F /  -2.7 °C 30.34in /  1027.3hPa Calm   3mph /  4.8km/h 67% 0in /  0mm WeatherDisplay:10.37 W/m2
11:45 37.1 °F /  2.8 °C 26.8 °F /  -2.9 °C 30.33in /  1027hPa West 1mph /  1.6km/h 2mph /  3.2km/h 66% 0in /  0mm WeatherDisplay:10.37 W/m2
11:50 37.2 °F /  2.9 °C 27.2 °F /  -2.7 °C 30.33in /  1027hPa Calm   4mph /  6.4km/h 67% 0in /  0mm WeatherDisplay:10.37 W/m2
11:55 37.1 °F /  2.8 °C 27.1 °F /  -2.7 °C 30.32in /  1026.6hPa Calm   3mph /  4.8km/h 67% 0in /  0mm WeatherDisplay:10.37 W/m2
12:00 37.4 °F /  3 °C 27.8 °F /  -2.3 °C 30.32in /  1026.6hPa West 1mph /  1.6km/h 5mph /  8km/h 68% 0in /  0mm WeatherDisplay:10.37 W/m2
12:05 37.8 °F /  3.2 °C 28.2 °F /  -2.1 °C 30.32in /  1026.6hPa West 1mph /  1.6km/h 3mph /  4.8km/h 68% 0in /  0mm WeatherDisplay:10.37 W/m2
12:10 38.3 °F /  3.5 °C 27.5 °F /  -2.5 °C 30.32in /  1026.6hPa West 1mph /  1.6km/h 4mph /  6.4km/h 65% 0in /  0mm WeatherDisplay:10.37 W/m2
12:15 38.2 °F /  3.4 °C 27.4 °F /  -2.6 °C 30.32in /  1026.6hPa WSW 5mph /  8km/h 8mph /  12.9km/h 65% 0in /  0mm WeatherDisplay:10.37 W/m2
12:20 38.3 °F /  3.5 °C 27.9 °F /  -2.3 °C 30.32in /  1026.6hPa SW 5mph /  8km/h 10mph /  16.1km/h 66% 0in /  0mm WeatherDisplay:10.37 W/m2
12:25 38.6 °F /  3.7 °C 27.8 °F /  -2.3 °C 30.32in /  1026.6hPa SW 3mph /  4.8km/h 9mph /  14.5km/h 65% 0in /  0mm WeatherDisplay:10.37 W/m2
12:30 39 °F /  3.9 °C 27.9 °F /  -2.3 °C 30.32in /  1026.6hPa WSW 2mph /  3.2km/h 9mph /  14.5km/h 64% 0in /  0mm WeatherDisplay:10.37 W/m2
12:35 39.4 °F /  4.1 °C 28.6 °F /  -1.9 °C 30.32in /  1026.6hPa SW 3mph /  4.8km/h 6mph /  9.7km/h 65% 0in /  0mm WeatherDisplay:10.37 W/m2
12:40 39.8 °F /  4.3 °C 28.6 °F /  -1.9 °C 30.32in /  1026.6hPa WSW 5mph /  8km/h 9mph /  14.5km/h 64% 0in /  0mm WeatherDisplay:10.37 W/m2
12:45 39.6 °F /  4.2 °C 28.4 °F /  -2 °C 30.31in /  1026.3hPa WSW 2mph /  3.2km/h 8mph /  12.9km/h 64% 0in /  0mm WeatherDisplay:10.37 W/m2
12:50 39.6 °F /  4.2 °C 28.8 °F /  -1.8 °C 30.31in /  1026.3hPa WSW 2mph /  3.2km/h 7mph /  11.3km/h 65% 0in /  0mm WeatherDisplay:10.37 W/m2
12:55 39.5 °F /  4.2 °C 28.7 °F /  -1.8 °C 30.31in /  1026.3hPa WSW 2mph /  3.2km/h 9mph /  14.5km/h 65% 0in /  0mm WeatherDisplay:10.37 W/m2
13:00 39.5 °F /  4.2 °C 29 °F /  -1.7 °C 30.31in /  1026.3hPa WSW 2mph /  3.2km/h 9mph /  14.5km/h 66% 0in /  0mm WeatherDisplay:10.37 W/m2
13:05 39.7 °F /  4.3 °C 29.2 °F /  -1.6 °C 30.31in /  1026.3hPa Calm   7mph /  11.3km/h 66% 0in /  0mm WeatherDisplay:10.37 W/m2
13:10 39.6 °F /  4.2 °C 28 °F /  -2.2 °C 30.31in /  1026.3hPa WSW 2mph /  3.2km/h 4mph /  6.4km/h 63% 0in /  0mm WeatherDisplay:10.37 W/m2
13:15 39.9 °F /  4.4 °C 28.7 °F /  -1.8 °C 30.31in /  1026.3hPa WSW 2mph /  3.2km/h 4mph /  6.4km/h 64% 0in /  0mm WeatherDisplay:10.37 W/m2
13:20 39.8 °F /  4.3 °C 29 °F /  -1.7 °C 30.30in /  1026hPa West 2mph /  3.2km/h 5mph /  8km/h 65% 0in /  0mm WeatherDisplay:10.37 W/m2
13:25 39.5 °F /  4.2 °C 28.7 °F /  -1.8 °C 30.30in /  1026hPa WSW 2mph /  3.2km/h 9mph /  14.5km/h 65% 0in /  0mm WeatherDisplay:10.37 W/m2
13:30 39.5 °F /  4.2 °C 29.1 °F /  -1.6 °C 30.30in /  1026hPa SW 1mph /  1.6km/h 4mph /  6.4km/h 66% 0in /  0mm WeatherDisplay:10.37 W/m2
13:35 39.7 °F /  4.3 °C 28.5 °F /  -1.9 °C 30.30in /  1026hPa Calm   3mph /  4.8km/h 64% 0in /  0mm WeatherDisplay:10.37 W/m2
13:40 39.7 °F /  4.3 °C 29.3 °F /  -1.5 °C 30.29in /  1025.6hPa NNW 1mph /  1.6km/h 4mph /  6.4km/h 66% 0in /  0mm WeatherDisplay:10.37 W/m2
13:45 39.9 °F /  4.4 °C 28.3 °F /  -2.1 °C 30.29in /  1025.6hPa WNW 2mph /  3.2km/h 6mph /  9.7km/h 63% 0in /  0mm WeatherDisplay:10.37 W/m2
13:50 40.1 °F /  4.5 °C 28.8 °F /  -1.8 °C 30.29in /  1025.6hPa West 2mph /  3.2km/h 5mph /  8km/h 64% 0in /  0mm WeatherDisplay:10.37 W/m2
13:55 40.3 °F /  4.6 °C 29.1 °F /  -1.6 °C 30.29in /  1025.6hPa WSW 2mph /  3.2km/h 5mph /  8km/h 64% 0in /  0mm WeatherDisplay:10.37 W/m2
14:00 40.2 °F /  4.6 °C 28.9 °F /  -1.7 °C 30.29in /  1025.6hPa Calm   3mph /  4.8km/h 64% 0in /  0mm WeatherDisplay:10.37 W/m2
14:05 40.3 °F /  4.6 °C 28.7 °F /  -1.8 °C 30.29in /  1025.6hPa South 1mph /  1.6km/h 3mph /  4.8km/h 63% 0in /  0mm WeatherDisplay:10.37 W/m2
14:10 40.1 °F /  4.5 °C 29.3 °F /  -1.5 °C 30.29in /  1025.6hPa West 1mph /  1.6km/h 3mph /  4.8km/h 65% 0in /  0mm WeatherDisplay:10.37 W/m2
14:15 40.1 °F /  4.5 °C 28.9 °F /  -1.7 °C 30.28in /  1025.3hPa WSW 1mph /  1.6km/h 5mph /  8km/h 64% 0in /  0mm WeatherDisplay:10.37 W/m2
14:20 40.1 °F /  4.5 °C 28.5 °F /  -1.9 °C 30.29in /  1025.6hPa SW 1mph /  1.6km/h 3mph /  4.8km/h 63% 0in /  0mm WeatherDisplay:10.37 W/m2
14:25 40.3 °F /  4.6 °C 30.2 °F /  -1 °C 30.29in /  1025.6hPa Calm   5mph /  8km/h 67% 0in /  0mm WeatherDisplay:10.37 W/m2
14:30 40.1 °F /  4.5 °C 28.9 °F /  -1.7 °C 30.30in /  1026hPa Calm   5mph /  8km/h 64% 0in /  0mm WeatherDisplay:10.37 W/m2
14:35 40.1 °F /  4.5 °C 29.2 °F /  -1.6 °C 30.29in /  1025.6hPa SW 2mph /  3.2km/h 5mph /  8km/h 65% 0in /  0mm WeatherDisplay:10.37 W/m2
14:40 39.9 °F /  4.4 °C 28.3 °F /  -2.1 °C 30.30in /  1026hPa WSW 2mph /  3.2km/h 5mph /  8km/h 63% 0in /  0mm WeatherDisplay:10.37 W/m2
14:45 39.8 °F /  4.3 °C 27.4 °F /  -2.6 °C 30.29in /  1025.6hPa Calm   6mph /  9.7km/h 61% 0in /  0mm WeatherDisplay:10.37 W/m2
14:50 39.8 °F /  4.3 °C 27.8 °F /  -2.3 °C 30.29in /  1025.6hPa Calm   3mph /  4.8km/h 62% 0in /  0mm WeatherDisplay:10.37 W/m2
14:55 39.6 °F /  4.2 °C 28.5 °F /  -1.9 °C 30.29in /  1025.6hPa SSW 1mph /  1.6km/h 2mph /  3.2km/h 64% 0in /  0mm WeatherDisplay:10.37 W/m2
15:00 39.5 °F /  4.2 °C 28.3 °F /  -2.1 °C 30.29in /  1025.6hPa South 1mph /  1.6km/h 3mph /  4.8km/h 64% 0in /  0mm WeatherDisplay:10.37 W/m2
15:05 39.4 °F /  4.1 °C 28.6 °F /  -1.9 °C 30.29in /  1025.6hPa Calm   2mph /  3.2km/h 65% 0in /  0mm WeatherDisplay:10.37 W/m2
15:10 39.2 °F /  4 °C 28.1 °F /  -2.2 °C 30.29in /  1025.6hPa Calm   2mph /  3.2km/h 64% 0in /  0mm WeatherDisplay:10.37 W/m2
15:15 39.1 °F /  3.9 °C 28.3 °F /  -2.1 °C 30.28in /  1025.3hPa Calm   1mph /  1.6km/h 65% 0in /  0mm WeatherDisplay:10.37 W/m2
15:20 39 °F /  3.9 °C 29 °F /  -1.7 °C 30.29in /  1025.6hPa Calm   1mph /  1.6km/h 67% 0in /  0mm WeatherDisplay:10.37 W/m2
15:25 38.8 °F /  3.8 °C 29.2 °F /  -1.6 °C 30.29in /  1025.6hPa Calm     68% 0in /  0mm WeatherDisplay:10.37 W/m2
15:30 38.7 °F /  3.7 °C 28.4 °F /  -2 °C 30.29in /  1025.6hPa Calm   3mph /  4.8km/h 66% 0in /  0mm WeatherDisplay:10.37 W/m2
15:35 38.9 °F /  3.8 °C 28.9 °F /  -1.7 °C 30.29in /  1025.6hPa Calm     67% 0in /  0mm WeatherDisplay:10.37 W/m2
15:40 38.9 °F /  3.8 °C 29.3 °F /  -1.5 °C 30.29in /  1025.6hPa Calm     68% 0in /  0mm WeatherDisplay:10.37 W/m2
15:45 38.9 °F /  3.8 °C 27.7 °F /  -2.4 °C 30.29in /  1025.6hPa Calm   2mph /  3.2km/h 64% 0in /  0mm WeatherDisplay:10.37 W/m2
15:50 38.9 °F /  3.8 °C 28.5 °F /  -1.9 °C 30.29in /  1025.6hPa Calm   1mph /  1.6km/h 66% 0in /  0mm WeatherDisplay:10.37 W/m2
15:55 38.7 °F /  3.7 °C 28.7 °F /  -1.8 °C 30.29in /  1025.6hPa Calm     67% 0in /  0mm WeatherDisplay:10.37 W/m2
16:00 38.5 °F /  3.6 °C 28.5 °F /  -1.9 °C 30.29in /  1025.6hPa Calm     67% 0in /  0mm WeatherDisplay:10.37 W/m2
16:05 38.4 °F /  3.6 °C 28.8 °F /  -1.8 °C 30.29in /  1025.6hPa Calm     68% 0in /  0mm WeatherDisplay:10.37 W/m2
16:10 38.1 °F /  3.4 °C 29.2 °F /  -1.6 °C 30.29in /  1025.6hPa Calm     70% 0in /  0mm WeatherDisplay:10.37 W/m2
16:15 37.8 °F /  3.2 °C 28.9 °F /  -1.7 °C 30.28in /  1025.3hPa Calm     70% 0in /  0mm WeatherDisplay:10.37 W/m2
16:20 37.5 °F /  3.1 °C 28.6 °F /  -1.9 °C 30.28in /  1025.3hPa Calm     70% 0in /  0mm WeatherDisplay:10.37 W/m2
16:25 37.2 °F /  2.9 °C 28.7 °F /  -1.8 °C 30.28in /  1025.3hPa Calm     71% 0in /  0mm WeatherDisplay:10.37 W/m2
16:30 37 °F /  2.8 °C 28.8 °F /  -1.8 °C 30.27in /  1024.9hPa Calm   1mph /  1.6km/h 72% 0in /  0mm WeatherDisplay:10.37 W/m2
16:35 36.9 °F /  2.7 °C 29.1 °F /  -1.6 °C 30.27in /  1024.9hPa Calm   1mph /  1.6km/h 73% 0in /  0mm WeatherDisplay:10.37 W/m2
16:40 36.7 °F /  2.6 °C 29.2 °F /  -1.6 °C 30.27in /  1024.9hPa Calm     74% 0in /  0mm WeatherDisplay:10.37 W/m2
16:45 36.5 °F /  2.5 °C 29.3 °F /  -1.5 °C 30.27in /  1024.9hPa Calm     75% 0in /  0mm WeatherDisplay:10.37 W/m2
16:50 36.3 °F /  2.4 °C 29.1 °F /  -1.6 °C 30.27in /  1024.9hPa Calm     75% 0in /  0mm WeatherDisplay:10.37 W/m2
16:55 36.1 °F /  2.3 °C 28.9 °F /  -1.7 °C 30.26in /  1024.6hPa Calm     75% 0in /  0mm WeatherDisplay:10.37 W/m2
17:00 35.8 °F /  2.1 °C 29 °F /  -1.7 °C 30.26in /  1024.6hPa Calm     76% 0in /  0mm WeatherDisplay:10.37 W/m2
17:05 35.6 °F /  2 °C 28.8 °F /  -1.8 °C 30.26in /  1024.6hPa Calm     76% 0in /  0mm WeatherDisplay:10.37 W/m2
17:10 35.3 °F /  1.8 °C 28.8 °F /  -1.8 °C 30.26in /  1024.6hPa Calm     77% 0in /  0mm WeatherDisplay:10.37 W/m2
17:15 35.1 °F /  1.7 °C 28.6 °F /  -1.9 °C 30.26in /  1024.6hPa Calm     77% 0in /  0mm WeatherDisplay:10.37 W/m2
17:20 34.9 °F /  1.6 °C 28.8 °F /  -1.8 °C 30.27in /  1024.9hPa Calm     78% 0in /  0mm WeatherDisplay:10.37 W/m2
17:25 34.7 °F /  1.5 °C 28.5 °F /  -1.9 °C 30.27in /  1024.9hPa Calm     78% 0in /  0mm WeatherDisplay:10.37 W/m2
17:30 34.5 °F /  1.4 °C 28.3 °F /  -2.1 °C 30.27in /  1024.9hPa Calm     78% 0in /  0mm WeatherDisplay:10.37 W/m2
17:35 34.2 °F /  1.2 °C 28.1 °F /  -2.2 °C 30.27in /  1024.9hPa Calm     78% 0in /  0mm WeatherDisplay:10.37 W/m2
17:40 34 °F /  1.1 °C 28.1 °F /  -2.2 °C 30.27in /  1024.9hPa Calm     79% 0in /  0mm WeatherDisplay:10.37 W/m2
17:45 33.8 °F /  1 °C 28.3 °F /  -2.1 °C 30.27in /  1024.9hPa Calm     80% 0in /  0mm WeatherDisplay:10.37 W/m2
17:50 33.6 °F /  0.9 °C 28.1 °F /  -2.2 °C 30.27in /  1024.9hPa Calm     80% 0in /  0mm WeatherDisplay:10.37 W/m2
17:55 33.5 °F /  0.8 °C 28.3 °F /  -2.1 °C 30.27in /  1024.9hPa Calm     81% 0in /  0mm WeatherDisplay:10.37 W/m2
18:00 33.4 °F /  0.8 °C 28.5 °F /  -1.9 °C 30.27in /  1024.9hPa Calm   1mph /  1.6km/h 82% 0in /  0mm WeatherDisplay:10.37 W/m2
18:05 33.4 °F /  0.8 °C 28.5 °F /  -1.9 °C 30.27in /  1024.9hPa Calm   2mph /  3.2km/h 82% 0in /  0mm WeatherDisplay:10.37 W/m2
18:10 33.3 °F /  0.7 °C 28.4 °F /  -2 °C 30.27in /  1024.9hPa Calm   2mph /  3.2km/h 82% 0in /  0mm WeatherDisplay:10.37 W/m2
18:15 33.3 °F /  0.7 °C 28.4 °F /  -2 °C 30.27in /  1024.9hPa Calm     82% 0in /  0mm WeatherDisplay:10.37 W/m2
18:20 33.3 °F /  0.7 °C 28.4 °F /  -2 °C 30.27in /  1024.9hPa Calm     82% 0in /  0mm WeatherDisplay:10.37 W/m2
18:25 33.3 °F /  0.7 °C 28.4 °F /  -2 °C 30.27in /  1024.9hPa Calm     82% 0in /  0mm WeatherDisplay:10.37 W/m2
18:30 33.3 °F /  0.7 °C 28.4 °F /  -2 °C 30.26in /  1024.6hPa Calm     82% 0in /  0mm WeatherDisplay:10.37 W/m2
18:35 33.3 °F /  0.7 °C 28.4 °F /  -2 °C 30.26in /  1024.6hPa Calm     82% 0in /  0mm WeatherDisplay:10.37 W/m2
18:40 33.3 °F /  0.7 °C 28.4 °F /  -2 °C 30.26in /  1024.6hPa Calm     82% 0in /  0mm WeatherDisplay:10.37 W/m2
18:45 33.2 °F /  0.7 °C 28.6 °F /  -1.9 °C 30.26in /  1024.6hPa Calm     83% 0in /  0mm WeatherDisplay:10.37 W/m2
18:50 33.2 °F /  0.7 °C 28.9 °F /  -1.7 °C 30.26in /  1024.6hPa Calm     84% 0in /  0mm WeatherDisplay:10.37 W/m2
18:55 33.2 °F /  0.7 °C 28.9 °F /  -1.7 °C 30.26in /  1024.6hPa Calm     84% 0in /  0mm WeatherDisplay:10.37 W/m2
19:00 33.2 °F /  0.7 °C 28.9 °F /  -1.7 °C 30.26in /  1024.6hPa Calm     84% 0in /  0mm WeatherDisplay:10.37 W/m2
19:05 33.2 °F /  0.7 °C 28.9 °F /  -1.7 °C 30.26in /  1024.6hPa Calm     84% 0in /  0mm WeatherDisplay:10.37 W/m2
19:10 33.1 °F /  0.6 °C 28.5 °F /  -1.9 °C 30.26in /  1024.6hPa Calm     83% 0in /  0mm WeatherDisplay:10.37 W/m2
19:15 33.2 °F /  0.7 °C 28.8 °F /  -1.8 °C 30.25in /  1024.3hPa Calm     84% 0in /  0mm WeatherDisplay:10.37 W/m2
19:20 33.1 °F /  0.6 °C 28.8 °F /  -1.8 °C 30.25in /  1024.3hPa Calm     84% 0in /  0mm WeatherDisplay:10.37 W/m2
19:25 33 °F /  0.6 °C 28.7 °F /  -1.8 °C 30.25in /  1024.3hPa Calm     84% 0in /  0mm WeatherDisplay:10.37 W/m2
19:30 33 °F /  0.6 °C 28.7 °F /  -1.8 °C 30.25in /  1024.3hPa Calm     84% 0in /  0mm WeatherDisplay:10.37 W/m2
19:35 32.9 °F /  0.5 °C 28.6 °F /  -1.9 °C 30.25in /  1024.3hPa Calm     84% 0in /  0mm WeatherDisplay:10.37 W/m2
19:40 32.8 °F /  0.4 °C 28.5 °F /  -1.9 °C 30.25in /  1024.3hPa Calm     84% 0in /  0mm WeatherDisplay:10.37 W/m2
19:45 32.8 °F /  0.4 °C 28.5 °F /  -1.9 °C 30.24in /  1023.9hPa Calm     84% 0in /  0mm WeatherDisplay:10.37 W/m2
19:50 32.8 °F /  0.4 °C 28.7 °F /  -1.8 °C 30.24in /  1023.9hPa Calm     85% 0in /  0mm WeatherDisplay:10.37 W/m2
19:55 32.7 °F /  0.4 °C 28.4 °F /  -2 °C 30.24in /  1023.9hPa Calm     84% 0in /  0mm WeatherDisplay:10.37 W/m2
20:00 32.8 °F /  0.4 °C 28.7 °F /  -1.8 °C 30.24in /  1023.9hPa Calm     85% 0in /  0mm WeatherDisplay:10.37 W/m2
20:05 32.7 °F /  0.4 °C 28.4 °F /  -2 °C 30.23in /  1023.6hPa West 1mph /  1.6km/h 2mph /  3.2km/h 84% 0in /  0mm WeatherDisplay:10.37 W/m2
20:10 32.7 °F /  0.4 °C 28.7 °F /  -1.8 °C 30.23in /  1023.6hPa Calm   1mph /  1.6km/h 85% 0in /  0mm WeatherDisplay:10.37 W/m2
20:15 32.7 °F /  0.4 °C 28.7 °F /  -1.8 °C 30.23in /  1023.6hPa Calm     85% 0in /  0mm WeatherDisplay:10.37 W/m2
20:20 32.7 °F /  0.4 °C 28.7 °F /  -1.8 °C 30.23in /  1023.6hPa Calm     85% 0in /  0mm WeatherDisplay:10.37 W/m2
20:25 32.7 °F /  0.4 °C 28.7 °F /  -1.8 °C 30.23in /  1023.6hPa Calm     85% 0in /  0mm WeatherDisplay:10.37 W/m2
20:30 32.7 °F /  0.4 °C 28.7 °F /  -1.8 °C 30.23in /  1023.6hPa Calm     85% 0in /  0mm WeatherDisplay:10.37 W/m2
20:35 32.7 °F /  0.4 °C 28.7 °F /  -1.8 °C 30.23in /  1023.6hPa Calm     85% 0in /  0mm WeatherDisplay:10.37 W/m2
20:40 32.7 °F /  0.4 °C 28.7 °F /  -1.8 °C 30.23in /  1023.6hPa Calm     85% 0in /  0mm WeatherDisplay:10.37 W/m2
20:45 32.7 °F /  0.4 °C 28.7 °F /  -1.8 °C 30.23in /  1023.6hPa Calm     85% 0in /  0mm WeatherDisplay:10.37 W/m2
20:50 32.6 °F /  0.3 °C 28.6 °F /  -1.9 °C 30.23in /  1023.6hPa Calm     85% 0in /  0mm WeatherDisplay:10.37 W/m2
20:55 32.7 °F /  0.4 °C 28.7 °F /  -1.8 °C 30.23in /  1023.6hPa Calm     85% 0in /  0mm WeatherDisplay:10.37 W/m2
21:00 32.7 °F /  0.4 °C 29 °F /  -1.7 °C 30.23in /  1023.6hPa Calm     86% 0in /  0mm WeatherDisplay:10.37 W/m2
21:05 32.7 °F /  0.4 °C 28.7 °F /  -1.8 °C 30.24in /  1023.9hPa Calm     85% 0in /  0mm WeatherDisplay:10.37 W/m2
21:10 32.7 °F /  0.4 °C 28.7 °F /  -1.8 °C 30.24in /  1023.9hPa Calm     85% 0in /  0mm WeatherDisplay:10.37 W/m2
21:15 32.7 °F /  0.4 °C 29 °F /  -1.7 °C 30.24in /  1023.9hPa Calm     86% 0in /  0mm WeatherDisplay:10.37 W/m2
21:20 32.7 °F /  0.4 °C 28.9 °F /  -1.7 °C 30.24in /  1023.9hPa Calm     86% 0in /  0mm WeatherDisplay:10.37 W/m2
21:25 32.6 °F /  0.3 °C 28.9 °F /  -1.7 °C 30.24in /  1023.9hPa Calm     86% 0in /  0mm WeatherDisplay:10.37 W/m2
21:30 32.6 °F /  0.3 °C 28.8 °F /  -1.8 °C 30.24in /  1023.9hPa Calm     86% 0in /  0mm WeatherDisplay:10.37 W/m2
21:35 32.4 °F /  0.2 °C 28.7 °F /  -1.8 °C 30.23in /  1023.6hPa Calm     86% 0in /  0mm WeatherDisplay:10.37 W/m2
21:40 32.2 °F /  0.1 °C 28.5 °F /  -1.9 °C 30.23in /  1023.6hPa Calm     86% 0in /  0mm WeatherDisplay:10.37 W/m2
21:45 32.1 °F /  0.1 °C 28.4 °F /  -2 °C 30.23in /  1023.6hPa Calm     86% 0in /  0mm WeatherDisplay:10.37 W/m2
21:50 31.9 °F /  -0.1 °C 28.2 °F /  -2.1 °C 30.23in /  1023.6hPa Calm     86% 0in /  0mm WeatherDisplay:10.37 W/m2
21:55 31.7 °F /  -0.2 °C 28.3 °F /  -2.1 °C 30.23in /  1023.6hPa Calm     87% 0in /  0mm WeatherDisplay:10.37 W/m2
22:00 31.5 °F /  -0.3 °C 28.1 °F /  -2.2 °C 30.23in /  1023.6hPa Calm     87% 0in /  0mm WeatherDisplay:10.37 W/m2
22:05 31.4 °F /  -0.3 °C 28.3 °F /  -2.1 °C 30.23in /  1023.6hPa Calm     88% 0in /  0mm WeatherDisplay:10.37 W/m2
22:10 31.3 °F /  -0.4 °C 28.2 °F /  -2.1 °C 30.23in /  1023.6hPa Calm     88% 0in /  0mm WeatherDisplay:10.37 W/m2
22:15 31.2 °F /  -0.4 °C 28.1 °F /  -2.2 °C 30.23in /  1023.6hPa Calm     88% 0in /  0mm WeatherDisplay:10.37 W/m2
22:20 31.1 °F /  -0.5 °C 28 °F /  -2.2 °C 30.22in /  1023.2hPa Calm     88% 0in /  0mm WeatherDisplay:10.37 W/m2
22:25 30.9 °F /  -0.6 °C 27.8 °F /  -2.3 °C 30.23in /  1023.6hPa Calm     88% 0in /  0mm WeatherDisplay:10.37 W/m2
22:30 30.8 °F /  -0.7 °C 28 °F /  -2.2 °C 30.23in /  1023.6hPa Calm     89% 0in /  0mm WeatherDisplay:10.37 W/m2
22:35 30.7 °F /  -0.7 °C 27.9 °F /  -2.3 °C 30.23in /  1023.6hPa Calm     89% 0in /  0mm WeatherDisplay:10.37 W/m2
22:40 30.6 °F /  -0.8 °C 27.8 °F /  -2.3 °C 30.23in /  1023.6hPa Calm     89% 0in /  0mm WeatherDisplay:10.37 W/m2
22:45 30.5 °F /  -0.8 °C 27.9 °F /  -2.3 °C 30.22in /  1023.2hPa Calm     90% 0in /  0mm WeatherDisplay:10.37 W/m2
22:50 30.3 °F /  -0.9 °C 27.8 °F /  -2.3 °C 30.22in /  1023.2hPa Calm     90% 0in /  0mm WeatherDisplay:10.37 W/m2
22:55 30.2 °F /  -1 °C 27.6 °F /  -2.4 °C 30.22in /  1023.2hPa Calm     90% 0in /  0mm WeatherDisplay:10.37 W/m2
23:00 30.1 °F /  -1.1 °C 27.5 °F /  -2.5 °C 30.22in /  1023.2hPa Calm     90% 0in /  0mm WeatherDisplay:10.37 W/m2
23:05 30 °F /  -1.1 °C 27.4 °F /  -2.6 °C 30.22in /  1023.2hPa Calm     90% 0in /  0mm WeatherDisplay:10.37 W/m2
23:10 29.8 °F /  -1.2 °C 27.3 °F /  -2.6 °C 30.22in /  1023.2hPa Calm     90% 0in /  0mm WeatherDisplay:10.37 W/m2
23:15 29.8 °F /  -1.2 °C 27.2 °F /  -2.7 °C 30.22in /  1023.2hPa Calm     90% 0in /  0mm WeatherDisplay:10.37 W/m2
23:20 29.7 °F /  -1.3 °C 27.4 °F /  -2.6 °C 30.22in /  1023.2hPa Calm     91% 0in /  0mm WeatherDisplay:10.37 W/m2
23:25 29.6 °F /  -1.3 °C 27.3 °F /  -2.6 °C 30.22in /  1023.2hPa Calm     91% 0in /  0mm WeatherDisplay:10.37 W/m2
23:30 29.5 °F /  -1.4 °C 27.2 °F /  -2.7 °C 30.22in /  1023.2hPa Calm   2mph /  3.2km/h 91% 0in /  0mm WeatherDisplay:10.37 W/m2
23:35 29.4 °F /  -1.4 °C 27.1 °F /  -2.7 °C 30.22in /  1023.2hPa Calm     91% 0in /  0mm WeatherDisplay:10.37 W/m2
23:40 29.4 °F /  -1.4 °C 27.1 °F /  -2.7 °C 30.22in /  1023.2hPa Calm     91% 0in /  0mm WeatherDisplay:10.37 W/m2
23:45 29.3 °F /  -1.5 °C 27 °F /  -2.8 °C 30.22in /  1023.2hPa Calm     91% 0in /  0mm WeatherDisplay:10.37 W/m2
23:50 29.2 °F /  -1.6 °C 26.9 °F /  -2.8 °C 30.21in /  1022.9hPa Calm     91% 0in /  0mm WeatherDisplay:10.37 W/m2
23:55 29.1 °F /  -1.6 °C 26.8 °F /  -2.9 °C 30.21in /  1022.9hPa Calm     91% 0in /  0mm WeatherDisplay:10.37 W/m2
Compliments of Weather Underground - 2.5 mb